Time;durP1;ratioP1;P1;durP2;ratioP2;P2;SDS_P1;SDS_P2;PMS_P1;PMS_P2;Temp;Humidity;BMP_temperature;BMP_pressure;BME280_temperature;BME280_humidity;BME280_pressure;Samples;Min_cycle;Max_cycle;Signal;HPM_P1;HPM_P2
2022/06/05 00:00:31;;;;;;;3.10;2.10;;;18.30;1.00;;;;;;5077168;28;20629;-76
2022/06/05 00:03:11;;;;;;;2.60;2.30;;;18.30;1.00;;;;;;5074430;28;20194;-77
2022/06/05 00:05:54;;;;;;;2.37;2.03;;;18.30;99.90;;;;;;5074937;28;20166;-78
2022/06/05 00:08:33;;;;;;;4.73;2.60;;;18.20;99.90;;;;;;5074768;28;20163;-77
2022/06/05 00:11:00;;;;;;;2.17;2.07;;;18.20;99.90;;;;;;5075019;28;20166;-77
2022/06/05 00:13:44;;;;;;;3.60;2.57;;;18.10;99.90;;;;;;5056251;28;20214;-78
2022/06/05 00:16:14;;;;;;;3.90;2.70;;;18.10;99.90;;;;;;5074829;28;20560;-78
2022/06/05 00:18:42;;;;;;;2.87;2.40;;;18.00;80.60;;;;;;5074379;28;20163;-77
2022/06/05 00:21:08;;;;;;;2.80;2.60;;;18.00;99.90;;;;;;5056481;28;20652;-77
2022/06/05 00:23:35;;;;;;;5.60;2.67;;;18.00;99.90;;;;;;5056411;28;20257;-76
2022/06/05 00:26:23;;;;;;;3.80;2.50;;;17.90;99.90;;;;;;5056174;28;20221;-77
2022/06/05 00:29:26;;;;;;;4.30;2.40;;;17.90;1.00;;;;;;5074480;28;20640;-77
2022/06/05 00:32:16;;;;;;;3.33;2.50;;;17.80;1.00;;;;;;5073880;28;20699;-77
2022/06/05 00:34:42;;;;;;;3.13;2.60;;;17.70;1.00;;;;;;5074240;28;20273;-77
2022/06/05 00:37:19;;;;;;;3.77;2.83;;;17.70;1.00;;;;;;5055887;28;20171;-77
2022/06/05 00:40:24;;;;;;;3.17;2.50;;;17.70;99.90;;;;;;5055897;28;20308;-77
2022/06/05 00:42:50;;;;;;;4.13;2.70;;;17.60;99.90;;;;;;5073757;28;20186;-77
2022/06/05 00:45:16;;;;;;;4.53;2.70;;;17.50;1.00;;;;;;5073677;28;20583;-77
2022/06/05 00:47:44;;;;;;;3.10;2.87;;;17.50;99.90;;;;;;5073265;28;20167;-77
2022/06/05 00:50:17;;;;;;;4.13;2.90;;;17.50;99.90;;;;;;5073520;28;20171;-77
2022/06/05 00:52:46;;;;;;;3.20;2.90;;;17.50;1.00;;;;;;5073573;28;20225;-76
2022/06/05 00:55:13;;;;;;;4.43;3.43;;;17.40;1.00;;;;;;5073567;28;20255;-77
2022/06/05 00:57:40;;;;;;;3.30;3.00;;;17.40;48.10;;;;;;5073523;28;20241;-77
2022/06/05 01:00:13;;;;;;;3.40;2.70;;;17.30;1.00;;;;;;5073481;28;20171;-77
2022/06/05 01:02:41;;;;;;;4.60;2.77;;;17.30;1.00;;;;;;5055429;28;20660;-77
2022/06/05 01:05:08;;;;;;;3.07;2.77;;;17.30;99.90;;;;;;5055312;28;20179;-77
2022/06/05 01:07:34;;;;;;;2.97;2.67;;;17.20;99.90;;;;;;5073130;28;20253;-77
2022/06/05 01:10:00;;;;;;;4.20;2.87;;;17.20;1.00;;;;;;5055569;28;20701;-77
2022/06/05 01:12:40;;;;;;;4.00;2.90;;;17.20;1.00;;;;;;5073115;28;20236;-78
2022/06/05 01:15:16;;;;;;;3.03;2.63;;;17.20;99.90;;;;;;5073698;28;20178;-77
2022/06/05 01:17:52;;;;;;;2.67;2.47;;;17.10;1.00;;;;;;5073741;28;20151;-77
2022/06/05 01:20:54;;;;;;;3.87;3.03;;;17.10;1.00;;;;;;5073637;28;20155;-77
2022/06/05 01:23:47;;;;;;;4.37;2.83;;;17.00;1.00;;;;;;5055423;28;20210;-77
2022/06/05 01:26:20;;;;;;;5.37;2.80;;;17.00;1.00;;;;;;5073345;28;20686;-77
2022/06/05 01:29:12;;;;;;;4.97;3.43;;;16.90;99.90;;;;;;5073537;28;20223;-77
2022/06/05 01:31:43;;;;;;;6.03;2.90;;;16.90;1.00;;;;;;5064691;28;20256;-78
2022/06/05 01:34:26;;;;;;;5.03;3.53;;;16.90;99.90;;;;;;5073376;28;20235;-77
2022/06/05 01:37:01;;;;;;;3.60;3.07;;;16.80;1.00;;;;;;5055388;28;20171;-77
2022/06/05 01:39:38;;;;;;;3.30;3.00;;;16.80;1.00;;;;;;5055478;28;20199;-78
2022/06/05 01:42:30;;;;;;;3.10;2.73;;;16.80;1.00;;;;;;5073560;28;20564;-78
2022/06/05 01:45:01;;;;;;;3.47;3.13;;;16.80;99.90;;;;;;5062826;28;20210;-77
2022/06/05 01:47:37;;;;;;;3.03;2.80;;;16.70;1.00;;;;;;5055462;28;20185;-78
2022/06/05 01:50:16;;;;;;;3.20;3.00;;;16.60;1.00;;;;;;5055622;28;20315;-77
2022/06/05 01:53:06;;;;;;;3.60;3.30;;;16.60;99.90;;;;;;5059746;28;20198;-77
2022/06/05 01:55:49;;;;;;;4.83;3.53;;;16.50;99.90;;;;;;5073608;28;20178;-78
2022/06/05 01:58:19;;;;;;;4.87;3.10;;;16.50;1.00;;;;;;5073626;28;20305;-77
2022/06/05 02:00:50;;;;;;;3.83;3.20;;;16.50;1.00;;;;;;5077054;28;20160;-77
2022/06/05 02:03:22;;;;;;;5.23;3.40;;;16.50;1.00;;;;;;5077017;28;20609;-77
2022/06/05 02:05:53;;;;;;;3.50;3.20;;;16.40;75.50;;;;;;5076951;28;20159;-77
2022/06/05 02:08:32;;;;;;;3.70;3.40;;;16.40;1.00;;;;;;5077156;28;20151;-78
2022/06/05 02:11:00;;;;;;;5.53;3.10;;;16.40;1.00;;;;;;5058862;28;20189;-77
2022/06/05 02:13:26;;;;;;;3.80;3.23;;;16.30;99.90;;;;;;5076490;28;20714;-77
2022/06/05 02:15:53;;;;;;;4.70;3.33;;;16.30;1.00;;;;;;5076534;28;20202;-78
2022/06/05 02:18:19;;;;;;;4.93;3.60;;;16.30;1.00;;;;;;5076602;28;20594;-77
2022/06/05 02:20:45;;;;;;;4.93;3.70;;;16.30;1.00;;;;;;5076723;28;20171;-77
2022/06/05 02:23:18;;;;;;;3.43;3.13;;;16.30;1.00;;;;;;5058597;28;20191;-76
2022/06/05 02:25:44;;;;;;;4.13;3.73;;;16.30;1.00;;;;;;5058596;28;20187;-76
2022/06/05 02:28:15;;;;;;;4.20;3.57;;;16.30;1.00;;;;;;5058361;28;20178;-77
2022/06/05 02:31:08;;;;;;;3.93;3.53;;;16.30;1.00;;;;;;5058257;28;20182;-77
2022/06/05 02:34:05;;;;;;;3.93;3.53;;;16.20;1.00;;;;;;5076036;28;20178;-77
2022/06/05 02:36:41;;;;;;;4.03;3.63;;;16.10;1.00;;;;;;5076185;28;20179;-76
2022/06/05 02:39:23;;;;;;;3.90;3.33;;;16.10;12.50;;;;;;5058338;28;20539;-77
2022/06/05 02:42:09;;;;;;;3.57;3.27;;;16.10;28.00;;;;;;5076171;28;20274;-77
2022/06/05 02:45:17;;;;;;;4.53;3.30;;;16.00;95.50;;;;;;5075661;28;20195;-77
2022/06/05 02:47:51;;;;;;;4.20;3.40;;;16.00;99.90;;;;;;5042140;28;20667;-77
2022/06/05 02:50:31;;;;;;;4.63;3.40;;;15.90;99.90;;;;;;5058547;28;20516;-77
2022/06/05 02:53:02;;;;;;;4.23;3.50;;;15.90;99.90;;;;;;5076270;28;20257;-77
2022/06/05 02:55:28;;;;;;;6.50;3.87;;;15.90;99.90;;;;;;5058487;28;20226;-77
2022/06/05 02:57:53;;;;;;;4.93;3.63;;;15.80;99.90;;;;;;5079316;28;20183;-77
2022/06/05 03:00:22;;;;;;;3.47;3.17;;;15.80;99.90;;;;;;5082014;28;20238;-77
2022/06/05 03:05:33;;;;;;;4.67;3.33;;;15.70;99.90;;;;;;5081236;28;20690;-77
2022/06/05 03:08:00;;;;;;;3.90;3.50;;;15.70;99.90;;;;;;5080352;28;20183;-77
2022/06/05 03:10:26;;;;;;;4.10;3.53;;;15.70;99.90;;;;;;5075317;28;20179;-77
2022/06/05 03:12:51;;;;;;;4.53;3.67;;;15.70;99.90;;;;;;5057641;28;20242;-77
2022/06/05 03:15:18;;;;;;;5.60;4.10;;;15.70;99.90;;;;;;5075590;28;20245;-77
2022/06/05 03:17:44;;;;;;;6.73;3.60;;;15.70;99.90;;;;;;5075531;28;20183;-77
2022/06/05 03:20:12;;;;;;;4.83;4.43;;;15.70;99.90;;;;;;5057651;28;20175;-77
2022/06/05 03:22:37;;;;;;;6.73;4.23;;;15.70;99.90;;;;;;5075457;28;20213;-77
2022/06/05 03:25:03;;;;;;;5.70;4.03;;;15.70;99.90;;;;;;5075328;28;20179;-77
2022/06/05 03:27:31;;;;;;;4.10;3.70;;;15.70;99.90;;;;;;5075497;28;20175;-77
2022/06/05 03:29:57;;;;;;;4.50;4.10;;;15.80;99.90;;;;;;5057264;28;20187;-77
2022/06/05 03:32:23;;;;;;;4.80;4.17;;;15.70;99.90;;;;;;5075331;28;20187;-77
2022/06/05 03:34:49;;;;;;;4.50;4.10;;;15.80;99.90;;;;;;5057209;28;20268;-77
2022/06/05 03:37:15;;;;;;;5.03;4.27;;;15.80;99.90;;;;;;5075253;28;20629;-77
2022/06/05 03:39:40;;;;;;;5.47;4.10;;;15.80;99.90;;;;;;5075577;28;20551;-77
2022/06/05 03:42:07;;;;;;;3.93;3.53;;;15.80;99.90;;;;;;5075725;28;20561;-77
2022/06/05 03:44:38;;;;;;;5.53;3.30;;;15.80;99.90;;;;;;5075822;28;20248;-76
2022/06/05 03:47:05;;;;;;;5.13;3.90;;;15.80;99.90;;;;;;5076559;28;20625;-77
2022/06/05 03:49:31;;;;;;;5.13;3.60;;;15.80;99.90;;;;;;5078141;28;20202;-77
2022/06/05 03:51:57;;;;;;;5.07;3.77;;;15.80;99.90;;;;;;5074803;28;20206;-77
2022/06/05 03:54:23;;;;;;;4.10;3.70;;;15.80;99.90;;;;;;5074948;28;20199;-77
2022/06/05 03:56:49;;;;;;;4.73;4.27;;;15.80;99.90;;;;;;5056762;28;20179;-77
2022/06/05 03:59:15;;;;;;;4.80;3.97;;;15.80;99.90;;;;;;5074954;28;20520;-77
2022/06/05 04:01:40;;;;;;;4.93;3.77;;;15.80;99.90;;;;;;5074744;28;20735;-77
2022/06/05 04:04:06;;;;;;;5.97;4.17;;;15.80;99.90;;;;;;5074577;28;20175;-77
2022/06/05 04:06:33;;;;;;;5.67;4.33;;;15.80;99.90;;;;;;5074461;28;20175;-77
2022/06/05 04:09:02;;;;;;;5.60;3.67;;;15.80;99.90;;;;;;5074506;28;20194;-77
2022/06/05 04:11:30;;;;;;;4.87;3.83;;;15.90;99.90;;;;;;5056342;28;20213;-77
2022/06/05 04:13:56;;;;;;;4.27;3.60;;;15.90;99.90;;;;;;5074614;28;20198;-77
2022/06/05 04:16:25;;;;;;;4.50;3.90;;;15.90;99.90;;;;;;5056418;28;20185;-77
2022/06/05 04:18:51;;;;;;;4.70;3.70;;;15.90;99.90;;;;;;5074558;28;20171;-77
2022/06/05 04:21:21;;;;;;;3.70;3.40;;;15.90;99.90;;;;;;5073537;28;20198;-78
2022/06/05 04:23:47;;;;;;;4.90;4.13;;;15.90;99.90;;;;;;5074220;28;20182;-77
2022/06/05 04:26:15;;;;;;;4.00;3.43;;;16.00;99.90;;;;;;5074179;28;20183;-76
2022/06/05 04:28:41;;;;;;;4.30;3.90;;;16.00;99.90;;;;;;5055946;28;20590;-77
2022/06/05 04:31:18;;;;;;;4.00;3.60;;;16.00;99.90;;;;;;5074168;28;20171;-77
2022/06/05 04:33:43;;;;;;;5.77;3.77;;;16.10;99.90;;;;;;5073994;28;20163;-78
2022/06/05 04:36:09;;;;;;;4.13;3.73;;;16.00;99.90;;;;;;5074107;28;20167;-77
2022/06/05 04:38:34;;;;;;;4.13;3.73;;;16.10;99.90;;;;;;5074597;28;20171;-77
2022/06/05 04:41:00;;;;;;;4.23;3.83;;;16.20;99.90;;;;;;5055930;28;20199;-77
2022/06/05 04:43:26;;;;;;;6.07;4.07;;;16.10;99.90;;;;;;5073818;28;20183;-77
2022/06/05 04:45:51;;;;;;;4.53;3.77;;;16.20;99.90;;;;;;5074415;28;20170;-77
2022/06/05 04:48:17;;;;;;;4.50;3.60;;;16.30;99.90;;;;;;5055972;28;20186;-77
2022/06/05 04:50:42;;;;;;;4.23;3.77;;;16.30;99.90;;;;;;5055811;28;20170;-77
2022/06/05 04:53:08;;;;;;;4.27;3.60;;;16.30;99.90;;;;;;5073849;28;20695;-77
2022/06/05 04:55:36;;;;;;;6.23;3.43;;;16.30;99.90;;;;;;5056527;28;20311;-77
2022/06/05 04:58:02;;;;;;;3.40;3.10;;;16.30;99.90;;;;;;5073420;28;20163;-77
2022/06/05 05:00:27;;;;;;;4.63;3.60;;;16.40;99.90;;;;;;5073529;28;20232;-77
2022/06/05 05:02:53;;;;;;;3.70;3.40;;;16.40;99.90;;;;;;5055528;28;20199;-77
2022/06/05 05:05:18;;;;;;;4.10;3.70;;;16.40;99.90;;;;;;5073461;28;20551;-76
2022/06/05 05:07:44;;;;;;;3.97;3.60;;;16.50;99.90;;;;;;5055304;28;20290;-76
2022/06/05 05:10:10;;;;;;;4.13;3.73;;;16.50;99.90;;;;;;5073210;28;20178;-76
2022/06/05 05:12:36;;;;;;;6.40;3.40;;;16.50;99.90;;;;;;5055271;28;20241;-77
2022/06/05 05:15:02;;;;;;;4.57;3.70;;;16.50;99.90;;;;;;5073674;22;20231;-93
2022/06/05 05:17:28;;;;;;;3.60;3.30;;;16.50;99.90;;;;;;5102956;28;20171;-93
2022/06/05 05:19:55;;;;;;;4.63;3.90;;;16.60;99.90;;;;;;5107303;28;20189;-93
2022/06/05 05:22:21;;;;;;;4.13;3.30;;;16.60;99.90;;;;;;5108308;28;20265;-93
2022/06/05 05:24:47;;;;;;;4.37;3.97;;;16.70;99.90;;;;;;5106079;28;20199;-93
2022/06/05 05:27:13;;;;;;;4.13;3.50;;;16.60;99.90;;;;;;5090023;28;20174;-93
2022/06/05 05:29:40;;;;;;;4.27;3.87;;;16.60;99.90;;;;;;5088265;28;20197;-93
2022/06/05 05:32:07;;;;;;;4.47;3.80;;;16.70;99.90;;;;;;5089871;28;20251;-94
2022/06/05 05:34:36;;;;;;;4.40;3.00;;;16.70;99.90;;;;;;5090275;28;20207;-93
2022/06/05 05:37:01;;;;;;;6.53;3.80;;;16.90;98.60;;;;;;5091057;28;20236;-93
2022/06/05 05:42:12;;;;;;;5.67;3.73;;;16.80;35.80;;;;;;5097641;28;20169;-92
2022/06/05 05:44:40;;;;;;;3.70;3.20;;;16.80;37.40;;;;;;5097648;28;20273;-96
2022/06/05 05:47:10;;;;;;;5.00;3.60;;;16.90;75.60;;;;;;5097991;28;20193;-93
2022/06/05 05:49:39;;;;;;;3.97;3.40;;;17.00;91.20;;;;;;5098612;28;20170;-96
2022/06/05 05:52:05;;;;;;;3.60;3.30;;;17.00;86.20;;;;;;5097504;28;20170;-93
2022/06/05 05:54:33;;;;;;;5.80;3.43;;;17.00;18.20;;;;;;5095500;28;20211;-93
2022/06/05 05:59:27;;;;;;;5.33;3.70;;;17.10;1.00;;;;;;5031671;28;20211;-75
2022/06/05 06:01:53;;;;;;;3.97;3.47;;;17.20;1.00;;;;;;5033004;28;20655;-75
2022/06/05 06:04:19;;;;;;;3.60;3.30;;;17.30;1.00;;;;;;5033170;28;20172;-75
2022/06/05 06:06:46;;;;;;;4.87;3.93;;;17.30;1.00;;;;;;5032777;28;20180;-75
2022/06/05 06:09:12;;;;;;;4.30;3.90;;;17.40;99.90;;;;;;5032739;28;20173;-74
2022/06/05 06:11:38;;;;;;;3.97;3.27;;;17.40;99.90;;;;;;5032635;28;20660;-75
2022/06/05 06:14:04;;;;;;;3.90;3.50;;;17.40;99.90;;;;;;5049705;28;20207;-76
2022/06/05 06:16:29;;;;;;;4.03;3.63;;;17.50;99.90;;;;;;5050695;28;20270;-76
2022/06/05 06:18:56;;;;;;;6.50;3.80;;;17.50;99.90;;;;;;5051044;28;20247;-76
2022/06/05 06:21:22;;;;;;;4.27;3.37;;;17.60;99.90;;;;;;5050059;28;20167;-76
2022/06/05 06:23:48;;;;;;;3.60;3.30;;;17.60;1.00;;;;;;5051208;28;20594;-76
2022/06/05 06:26:15;;;;;;;6.50;3.17;;;17.60;1.00;;;;;;5051212;28;20246;-76
2022/06/05 06:28:41;;;;;;;4.13;3.70;;;17.70;1.00;;;;;;5051665;28;20198;-75
2022/06/05 06:31:10;;;;;;;7.50;3.60;;;17.60;1.00;;;;;;5052425;28;20168;-75
2022/06/05 06:33:36;;;;;;;3.40;3.10;;;17.70;1.00;;;;;;5052691;28;20622;-75
2022/06/05 06:36:04;;;;;;;3.60;3.30;;;17.70;1.00;;;;;;5052215;28;20214;-75
2022/06/05 06:38:29;;;;;;;3.83;3.37;;;17.70;99.90;;;;;;5052373;28;20175;-75
2022/06/05 06:41:06;;;;;;;4.53;3.57;;;17.70;99.90;;;;;;5052568;28;20514;-75
2022/06/05 06:43:33;;;;;;;5.57;3.67;;;17.80;99.90;;;;;;5051099;28;20172;-75
2022/06/05 06:45:59;;;;;;;3.70;3.40;;;17.90;1.00;;;;;;5054681;28;20571;-75
2022/06/05 06:48:26;;;;;;;3.90;3.60;;;17.80;99.90;;;;;;5055770;28;20182;-75
2022/06/05 06:50:58;;;;;;;4.83;3.47;;;17.80;99.90;;;;;;5055843;28;20172;-75
2022/06/05 06:53:24;;;;;;;3.80;3.50;;;17.80;1.00;;;;;;5056035;28;20179;-75
2022/06/05 06:55:50;;;;;;;4.23;3.47;;;17.90;99.90;;;;;;5055579;28;20200;-75
2022/06/05 06:58:16;;;;;;;5.93;3.30;;;17.90;1.00;;;;;;5055680;28;20657;-75
2022/06/05 07:00:42;;;;;;;4.27;3.87;;;18.00;1.00;;;;;;5055642;28;20175;-75
2022/06/05 07:03:08;;;;;;;5.10;3.90;;;18.00;1.00;;;;;;5055874;28;20229;-75
2022/06/05 07:05:34;;;;;;;4.80;3.77;;;18.10;99.90;;;;;;5055520;28;20658;-75
2022/06/05 07:08:00;;;;;;;4.70;3.70;;;18.10;1.00;;;;;;5055489;28;20191;-75
2022/06/05 07:10:25;;;;;;;5.33;3.27;;;18.10;1.00;;;;;;5055461;28;20206;-74
2022/06/05 07:12:51;;;;;;;3.80;3.50;;;18.20;99.90;;;;;;5055403;28;20179;-75
2022/06/05 07:15:17;;;;;;;3.70;3.40;;;18.20;99.90;;;;;;5055498;28;20572;-75
2022/06/05 07:17:43;;;;;;;4.53;4.07;;;18.30;1.00;;;;;;5055225;28;20232;-75
2022/06/05 07:20:08;;;;;;;4.40;3.57;;;18.30;99.90;;;;;;5055266;28;20254;-75
2022/06/05 07:22:34;;;;;;;5.17;3.43;;;18.30;1.00;;;;;;5055244;28;20176;-75
2022/06/05 07:25:00;;;;;;;3.47;3.17;;;18.30;99.90;;;;;;5055401;28;20666;-75
2022/06/05 07:27:27;;;;;;;3.83;3.23;;;18.30;1.00;;;;;;5055130;28;20250;-75
2022/06/05 07:29:53;;;;;;;4.67;3.70;;;18.40;1.00;;;;;;5053811;28;20195;-75
2022/06/05 07:32:20;;;;;;;5.53;3.80;;;18.50;99.90;;;;;;5055027;28;20179;-75
2022/06/05 07:34:47;;;;;;;3.83;3.50;;;18.50;99.90;;;;;;5054977;28;20203;-75
2022/06/05 07:37:13;;;;;;;6.50;3.67;;;18.60;99.90;;;;;;5054940;28;20230;-75
2022/06/05 07:39:39;;;;;;;4.10;3.70;;;18.60;99.90;;;;;;5053673;28;20183;-75
2022/06/05 07:42:06;;;;;;;4.20;3.70;;;18.70;99.90;;;;;;5053580;28;20519;-75
2022/06/05 07:44:32;;;;;;;6.87;3.70;;;18.80;1.00;;;;;;5054778;28;20211;-75
2022/06/05 07:46:57;;;;;;;4.67;3.47;;;18.90;77.50;;;;;;5053515;28;20176;-75
2022/06/05 07:49:23;;;;;;;4.03;3.57;;;19.00;99.90;;;;;;5053419;28;20213;-76
2022/06/05 07:54:37;;;;;;;4.70;3.43;;;19.10;99.90;;;;;;5054813;28;20214;-75
2022/06/05 07:57:08;;;;;;;4.03;3.57;;;19.20;1.00;;;;;;5052082;28;20180;-75
2022/06/05 07:59:36;;;;;;;5.07;3.23;;;19.40;57.80;;;;;;5054848;28;20244;-75
2022/06/05 08:02:08;;;;;;;3.97;3.50;;;19.50;99.90;;;;;;5053209;28;20171;-75
2022/06/05 08:04:35;;;;;;;7.40;3.90;;;19.60;99.90;;;;;;5054604;28;20187;-76
2022/06/05 08:07:02;;;;;;;4.30;3.50;;;19.60;99.90;;;;;;5053114;28;20645;-75
2022/06/05 08:09:29;;;;;;;6.27;3.60;;;19.70;99.90;;;;;;5053078;28;20205;-75
2022/06/05 08:11:55;;;;;;;4.20;3.80;;;19.70;99.90;;;;;;5054395;28;20211;-75
2022/06/05 08:14:21;;;;;;;4.67;3.83;;;19.80;99.90;;;;;;5054143;28;20245;-75
2022/06/05 08:16:47;;;;;;;5.87;3.70;;;19.90;99.90;;;;;;5052947;28;20167;-75
2022/06/05 08:19:16;;;;;;;4.23;3.83;;;20.00;99.90;;;;;;5054123;28;20175;-75
2022/06/05 08:21:42;;;;;;;5.23;3.63;;;20.10;99.90;;;;;;5052811;28;20638;-75
2022/06/05 08:24:07;;;;;;;4.17;3.83;;;20.10;99.90;;;;;;5054317;28;20175;-76
2022/06/05 08:26:33;;;;;;;5.73;4.10;;;20.20;1.00;;;;;;5054002;28;20171;-75
2022/06/05 08:28:59;;;;;;;5.60;4.10;;;20.20;18.60;;;;;;5053914;28;20207;-75
2022/06/05 08:31:24;;;;;;;3.80;3.50;;;20.30;1.00;;;;;;5053975;28;20203;-75
2022/06/05 08:33:50;;;;;;;4.37;3.97;;;20.30;99.90;;;;;;5053885;28;20172;-75
2022/06/05 08:36:15;;;;;;;4.77;3.77;;;20.40;1.00;;;;;;5053764;28;20665;-75
2022/06/05 08:41:28;;;;;;;5.07;3.73;;;20.50;91.60;;;;;;5054074;28;20186;-75
2022/06/05 08:44:17;;;;;;;6.33;3.80;;;20.60;99.90;;;;;;5052536;28;20175;-75
2022/06/05 08:46:58;;;;;;;4.37;3.53;;;20.70;99.90;;;;;;5053703;28;20156;-76
2022/06/05 08:49:43;;;;;;;6.10;4.27;;;20.70;1.00;;;;;;5052790;28;20172;-75
2022/06/05 08:52:20;;;;;;;4.10;3.53;;;20.80;1.00;;;;;;5053916;28;20144;-75
2022/06/05 08:54:54;;;;;;;4.00;3.70;;;21.00;99.90;;;;;;5053741;28;20203;-75
2022/06/05 08:57:30;;;;;;;3.90;3.50;;;21.00;99.90;;;;;;5053410;28;20175;-75
2022/06/05 09:00:26;;;;;;;4.07;3.67;;;21.10;99.90;;;;;;5053459;28;20147;-75
2022/06/05 09:03:13;;;;;;;4.23;3.83;;;21.10;99.90;;;;;;5052999;28;20520;-76
2022/06/05 09:05:45;;;;;;;4.33;3.93;;;21.20;99.90;;;;;;5053256;28;20195;-76
2022/06/05 09:08:25;;;;;;;5.37;3.43;;;21.30;99.90;;;;;;5051741;28;20184;-77
2022/06/05 09:10:55;;;;;;;4.10;3.70;;;21.40;99.90;;;;;;5053686;28;20174;-75
2022/06/05 09:13:59;;;;;;;3.73;3.13;;;21.40;99.90;;;;;;5053301;28;20160;-76
2022/06/05 09:16:28;;;;;;;4.17;3.80;;;21.50;99.90;;;;;;5053178;28;20206;-75
2022/06/05 09:18:54;;;;;;;4.13;3.67;;;21.50;99.90;;;;;;5053131;28;20308;-74
2022/06/05 09:21:26;;;;;;;4.60;3.93;;;21.60;99.90;;;;;;5053282;28;20172;-75
2022/06/05 09:24:12;;;;;;;4.93;3.60;;;21.60;99.90;;;;;;5052013;28;20183;-75
2022/06/05 09:26:42;;;;;;;4.00;3.70;;;21.60;1.00;;;;;;5051911;28;20172;-75
2022/06/05 09:29:29;;;;;;;4.00;3.70;;;21.60;99.90;;;;;;5053125;28;20179;-75
2022/06/05 09:32:29;;;;;;;5.77;3.80;;;21.60;99.90;;;;;;5053161;28;20152;-76
2022/06/05 09:35:05;;;;;;;4.37;3.90;;;21.50;99.90;;;;;;5052953;28;20203;-75
2022/06/05 09:37:38;;;;;;;4.53;4.13;;;21.40;1.00;;;;;;5053491;28;20163;-75
2022/06/05 09:40:32;;;;;;;4.90;4.40;;;21.30;1.00;;;;;;5053360;28;20162;-74
2022/06/05 09:43:29;;;;;;;4.50;4.10;;;21.30;95.50;;;;;;5053001;28;20167;-75
2022/06/05 09:46:26;;;;;;;3.93;3.63;;;21.20;1.00;;;;;;5052800;28;20279;-75
2022/06/05 09:49:03;;;;;;;4.00;3.60;;;21.20;10.40;;;;;;5053073;28;20202;-75
2022/06/05 09:51:28;;;;;;;4.40;4.00;;;21.20;1.00;;;;;;5053169;28;20495;-75
2022/06/05 09:54:11;;;;;;;4.40;4.03;;;21.10;1.00;;;;;;5052777;28;20186;-75
2022/06/05 10:00:13;;;;;;;4.23;3.83;;;21.10;99.90;;;;;;5052803;28;20262;-75
2022/06/05 10:02:38;;;;;;;5.00;4.23;;;21.10;99.90;;;;;;5053071;28;20235;-76
2022/06/05 10:05:23;;;;;;;4.77;4.37;;;21.00;1.00;;;;;;5052791;28;20626;-74
2022/06/05 10:07:56;;;;;;;6.77;4.23;;;21.00;1.00;;;;;;5053201;28;20686;-75
2022/06/05 10:10:26;;;;;;;7.13;5.03;;;20.90;1.00;;;;;;5052959;28;20198;-75
2022/06/05 10:13:01;;;;;;;5.13;4.70;;;20.80;99.90;;;;;;5053201;28;20564;-75
2022/06/05 10:15:31;;;;;;;8.83;5.27;;;20.70;99.90;;;;;;5052505;28;20207;-75
2022/06/05 10:18:03;;;;;;;6.23;5.63;;;20.60;99.90;;;;;;5052830;28;20194;-76
2022/06/05 10:20:46;;;;;;;6.17;5.57;;;20.60;99.90;;;;;;5054279;28;20685;-75
2022/06/05 10:23:48;;;;;;;6.60;5.97;;;20.60;99.90;;;;;;5055125;28;20171;-75
2022/06/05 10:26:28;;;;;;;6.37;5.77;;;20.50;99.90;;;;;;5054985;28;20218;-75
2022/06/05 10:29:16;;;;;;;6.80;6.13;;;20.40;99.90;;;;;;5056254;28;20172;-76
2022/06/05 10:31:52;;;;;;;8.57;6.20;;;20.30;99.90;;;;;;5055045;28;20228;-76
2022/06/05 10:34:46;;;;;;;6.80;6.27;;;20.30;99.90;;;;;;5055148;28;20195;-76
2022/06/05 10:37:37;;;;;;;6.83;6.13;;;20.30;99.90;;;;;;5055131;28;20229;-75
2022/06/05 10:40:28;;;;;;;8.03;6.93;;;20.30;99.90;;;;;;5056351;28;20172;-75
2022/06/05 10:43:04;;;;;;;7.47;6.77;;;20.40;99.90;;;;;;5055069;28;20250;-75
2022/06/05 10:45:39;;;;;;;8.27;7.33;;;20.40;99.90;;;;;;5056090;28;20202;-75
2022/06/05 10:48:21;;;;;;;8.60;7.87;;;20.30;99.90;;;;;;5056230;28;20645;-76
2022/06/05 10:51:12;;;;;;;7.97;6.80;;;20.40;99.90;;;;;;5056267;28;20231;-76
2022/06/05 10:53:48;;;;;;;7.13;6.43;;;20.40;99.90;;;;;;5054678;28;20168;-76
2022/06/05 10:56:28;;;;;;;8.37;6.77;;;20.40;99.90;;;;;;5056218;28;20195;-75
2022/06/05 10:59:06;;;;;;;7.70;6.87;;;20.40;99.90;;;;;;5054524;28;20274;-76
2022/06/05 11:01:45;;;;;;;8.07;6.83;;;20.40;99.90;;;;;;5056200;28;20642;-76
2022/06/05 11:04:32;;;;;;;8.60;7.07;;;20.40;99.90;;;;;;5056011;28;20164;-76
2022/06/05 11:07:28;;;;;;;7.37;6.53;;;20.50;99.90;;;;;;5055950;28;20156;-75
2022/06/05 11:10:05;;;;;;;7.80;7.10;;;20.40;99.90;;;;;;5055754;28;20176;-75
2022/06/05 11:16:13;;;;;;;9.70;6.57;;;20.40;99.90;;;;;;5064403;22;20293;-93
2022/06/05 11:18:55;;;;;;;7.30;6.53;;;20.40;99.90;;;;;;5040359;28;20168;-93
2022/06/05 11:21:23;;;;;;;7.57;6.80;;;20.30;99.90;;;;;;5076100;28;20155;-92
2022/06/05 11:23:53;;;;;;;8.23;5.77;;;20.30;99.90;;;;;;5058924;28;20262;-92
2022/06/05 11:26:33;;;;;;;7.13;6.43;;;20.20;99.90;;;;;;5058689;28;20185;-92
2022/06/05 11:29:05;;;;;;;7.27;6.57;;;20.20;99.90;;;;;;5058029;28;20264;-92
2022/06/05 11:31:50;;;;;;;7.30;6.60;;;20.20;99.90;;;;;;5057819;28;20673;-92
2022/06/05 11:34:46;;;;;;;7.43;6.73;;;20.10;99.90;;;;;;5060608;28;20202;-92
2022/06/05 11:37:45;;;;;;;9.30;6.60;;;20.10;99.90;;;;;;5059269;28;20540;-93
2022/06/05 11:40:27;;;;;;;7.40;6.67;;;20.10;99.90;;;;;;5025874;28;20688;-93
2022/06/05 11:43:17;;;;;;;7.63;6.93;;;20.10;99.90;;;;;;5058063;28;20167;-93
2022/06/05 11:45:52;;;;;;;7.77;7.10;;;20.10;99.90;;;;;;5076047;28;20668;-93
2022/06/05 11:48:47;;;;;;;8.53;7.37;;;20.10;99.90;;;;;;5057731;28;20171;-93
2022/06/05 11:51:20;;;;;;;7.10;6.40;;;20.20;99.90;;;;;;5075734;28;20505;-93
2022/06/05 11:54:07;;;;;;;8.30;7.50;;;20.20;99.90;;;;;;5058031;28;20170;-93
2022/06/05 11:56:53;;;;;;;9.17;7.37;;;20.40;99.90;;;;;;5057712;28;20558;-93
2022/06/05 11:59:28;;;;;;;6.97;6.23;;;20.50;99.90;;;;;;5057516;28;20684;-92
2022/06/05 12:02:29;;;;;;;7.77;6.60;;;20.60;99.90;;;;;;5058383;28;20182;-93
2022/06/05 12:05:01;;;;;;;9.20;5.93;;;20.70;99.90;;;;;;5019164;28;20640;-93
2022/06/05 12:07:28;;;;;;;7.00;6.27;;;20.80;99.90;;;;;;5061129;28;20197;-93
2022/06/05 12:09:58;;;;;;;6.60;6.03;;;20.80;99.90;;;;;;5078944;28;20222;-93
2022/06/05 12:12:37;;;;;;;5.77;5.27;;;20.90;99.90;;;;;;5057495;28;20582;-93
2022/06/05 12:15:15;;;;;;;5.67;5.17;;;20.90;99.90;;;;;;5057073;28;20255;-93
2022/06/05 12:17:53;;;;;;;5.47;4.97;;;20.90;99.90;;;;;;5058109;28;20645;-91
2022/06/05 12:20:48;;;;;;;7.40;5.20;;;20.90;99.90;;;;;;5075332;28;20186;-91
2022/06/05 12:23:45;;;;;;;6.67;6.03;;;21.00;99.90;;;;;;5076847;28;20216;-94
2022/06/05 12:26:22;;;;;;;5.87;5.17;;;21.20;99.90;;;;;;5058395;28;20179;-91
2022/06/05 12:29:03;;;;;;;5.27;4.80;;;21.60;99.90;;;;;;5056780;28;20224;-91
2022/06/05 12:31:38;;;;;;;5.73;5.23;;;21.50;99.90;;;;;;5059177;28;20590;-91
2022/06/05 12:34:19;;;;;;;6.50;5.83;;;21.50;99.90;;;;;;5066144;28;20185;-91
2022/06/05 12:36:53;;;;;;;6.33;5.70;;;21.60;99.90;;;;;;5064189;28;20225;-91
2022/06/05 12:39:26;;;;;;;5.30;4.90;;;21.70;99.90;;;;;;5065012;28;20198;-91
2022/06/05 12:42:01;;;;;;;5.10;4.70;;;22.00;99.90;;;;;;5060159;28;20178;-92
2022/06/05 12:44:30;;;;;;;5.33;4.83;;;21.90;99.90;;;;;;5076452;28;20213;-92
2022/06/05 12:47:03;;;;;;;4.70;4.30;;;21.90;99.90;;;;;;5058057;28;20694;-91
2022/06/05 12:49:38;;;;;;;4.97;4.57;;;21.90;99.90;;;;;;5059018;28;20830;-91
2022/06/05 12:52:26;;;;;;;6.30;4.80;;;21.90;99.90;;;;;;5057121;28;20710;-91
2022/06/05 12:54:59;;;;;;;4.77;4.37;;;21.90;99.90;;;;;;5057714;28;20597;-92
2022/06/05 12:57:37;;;;;;;4.83;4.30;;;22.00;99.90;;;;;;5058062;28;20171;-92
2022/06/05 13:00:30;;;;;;;4.50;4.10;;;21.80;99.90;;;;;;5058935;28;20190;-92
2022/06/05 13:03:14;;;;;;;5.03;4.50;;;21.80;99.90;;;;;;5075958;28;20214;-92
2022/06/05 13:05:47;;;;;;;5.40;4.90;;;21.90;99.90;;;;;;5075608;28;20265;-92
2022/06/05 13:08:35;;;;;;;4.83;4.27;;;22.10;99.90;;;;;;5056594;28;20167;-91
2022/06/05 13:11:05;;;;;;;4.80;4.40;;;22.00;99.90;;;;;;5074238;28;20545;-91
2022/06/05 13:14:07;;;;;;;5.10;4.70;;;22.00;99.90;;;;;;5056902;28;20705;-91
2022/06/05 13:16:51;;;;;;;5.47;4.97;;;22.10;99.90;;;;;;5056332;28;20701;-92
2022/06/05 13:19:41;;;;;;;4.97;4.57;;;22.10;99.90;;;;;;5056805;28;20605;-91
2022/06/05 13:22:16;;;;;;;6.30;4.63;;;22.20;99.90;;;;;;5055805;28;20190;-92
2022/06/05 13:24:52;;;;;;;4.73;4.40;;;22.40;99.90;;;;;;5073737;28;20216;-92
2022/06/05 13:27:39;;;;;;;5.57;4.73;;;22.30;99.90;;;;;;5055785;28;20163;-91
2022/06/05 13:30:16;;;;;;;4.93;4.53;;;22.40;99.90;;;;;;5056503;28;20583;-91
2022/06/05 13:32:48;;;;;;;4.67;4.27;;;22.40;1.00;;;;;;5055571;28;20163;-92
2022/06/05 13:35:28;;;;;;;4.90;4.50;;;22.40;1.00;;;;;;5057016;28;20229;-91
2022/06/05 13:38:18;;;;;;;4.80;4.40;;;22.40;1.00;;;;;;5056056;28;20162;-92
2022/06/05 13:41:13;;;;;;;4.87;4.37;;;22.30;1.00;;;;;;5060896;28;20720;-91
2022/06/05 13:43:40;;;;;;;5.03;4.63;;;22.20;83.80;;;;;;5058417;28;20175;-93